Terminal Aerodrome Forecast
Issued by NWS

Home | Current Version | Previous Version | Text Only | Print | Product List | Glossary On
Versions: 1 2 3 4 5 6 7 8 9 10 11 12 13 14
957
FTUS41 KGYX 251720
TAFRKD
TAF
KRKD 251720Z 2518/2618 22012G20KT P6SM SCT100 BKN250
     FM260300 22007KT P6SM SCT050 OVC100
     FM260800 24007KT 2SM BR BKN012 OVC030
     FM261400 21007KT P6SM SCT050 BKN100
      AMD LTD TO CLD VIS AND WIND=

USA.gov is the U.S. government's official web portal to all federal, state and local government web resources and services.